Time;durP1;ratioP1;P1;durP2;ratioP2;P2;SDS_P1;SDS_P2;PMS_P1;PMS_P2;Temp;Humidity;BMP_temperature;BMP_pressure;BME280_temperature;BME280_humidity;BME280_pressure;Samples;Min_cycle;Max_cycle;Signal;HPM_P1;HPM_P2
2022/05/20 00:01:26;;;;;;;;;3.00;1.25;;;;;21.12;43.69;101400.34;5020062;28;69751;-50
2022/05/20 00:03:52;;;;;;;;;2.00;1.00;;;;;21.10;43.50;101389.78;5032618;28;45343;-49
2022/05/20 00:06:17;;;;;;;;;2.00;1.25;;;;;21.08;43.15;101396.16;5033514;28;45394;-50
2022/05/20 00:08:43;;;;;;;;;3.00;1.00;;;;;21.10;43.20;101397.75;5026994;28;45192;-51
2022/05/20 00:11:09;;;;;;;;;1.00;1.00;;;;;21.10;42.78;101389.78;5033178;28;46217;-48
2022/05/20 00:13:34;;;;;;;;;3.00;1.00;;;;;21.07;42.40;101387.31;5028060;28;45327;-52
2022/05/20 00:16:01;;;;;;;;;0.75;0.75;;;;;21.05;42.37;101387.41;5029794;28;45367;-51
2022/05/20 00:18:27;;;;;;;;;1.00;1.00;;;;;21.03;42.46;101381.34;5024022;28;45653;-49
2022/05/20 00:20:52;;;;;;;;;4.00;1.00;;;;;21.03;42.49;101370.69;5029758;28;45507;-52
2022/05/20 00:23:18;;;;;;;;;1.50;1.00;;;;;21.04;42.65;101368.88;5035855;28;45417;-49
2022/05/20 00:25:46;;;;;;;;;1.00;1.00;;;;;21.06;42.42;101364.31;5029781;28;62000;-50
2022/05/20 00:28:23;;;;;;;;;1.00;1.00;;;;;21.08;42.47;101364.22;5020534;28;45500;-51
2022/05/20 00:31:04;;;;;;;;;1.00;1.00;;;;;21.08;42.43;101367.72;5035342;28;46979;-52
2022/05/20 00:33:29;;;;;;;;;2.00;1.00;;;;;21.05;42.28;101368.78;5028240;28;45624;-52
2022/05/20 00:35:55;;;;;;;;;1.00;1.00;;;;;21.05;42.17;101362.59;5027556;28;52302;-49
2022/05/20 00:38:20;;;;;;;;;1.00;1.00;;;;;21.05;42.39;101373.22;5027740;28;46020;-51
2022/05/20 00:40:48;;;;;;;;;2.00;1.00;;;;;21.03;42.41;101378.69;5024905;28;70279;-50
2022/05/20 00:43:26;;;;;;;;;1.00;0.25;;;;;21.03;42.09;101370.69;5035570;28;45719;-49
2022/05/20 00:45:52;;;;;;;;;3.00;1.00;;;;;21.04;42.54;101368.88;5032729;28;45340;-49
2022/05/20 00:48:18;;;;;;;;;2.00;2.00;;;;;21.02;42.21;101373.44;5019763;28;45481;-48
2022/05/20 00:50:55;;;;;;;;;2.25;1.00;;;;;21.02;42.33;101368.97;5023364;28;45614;-49
2022/05/20 00:53:22;;;;;;;;;5.00;1.00;;;;;21.00;41.55;101377.97;5026248;28;45909;-50
2022/05/20 00:55:48;;;;;;;;;2.00;0.00;;;;;20.95;41.78;101369.44;5034519;28;45370;-49
2022/05/20 00:58:16;;;;;;;;;2.25;0.50;;;;;20.93;41.92;101361.56;5034819;28;45270;-49
2022/05/20 01:00:47;;;;;;;;;4.25;1.00;;;;;20.92;41.91;101359.81;5022055;28;46262;-48
2022/05/20 01:03:14;;;;;;;;;1.00;1.00;;;;;20.89;42.13;101364.47;5022681;28;45673;-52
2022/05/20 01:05:43;;;;;;;;;1.00;1.00;;;;;20.86;41.99;101362.88;5035725;28;45378;-51
2022/05/20 01:08:12;;;;;;;;;4.00;1.00;;;;;20.81;41.97;101352.50;5023085;28;45407;-51
2022/05/20 01:10:37;;;;;;;;;2.00;1.00;;;;;20.76;42.09;101351.91;5032736;28;45464;-49
2022/05/20 01:13:03;;;;;;;;;1.00;1.00;;;;;20.76;42.12;101348.41;5030822;28;66022;-51
2022/05/20 01:15:29;;;;;;;;;1.00;1.00;;;;;20.76;41.87;101351.91;5022154;28;45302;-51
2022/05/20 01:17:55;;;;;;;;;3.00;1.00;;;;;20.75;41.54;101342.25;5028545;28;45460;-52
2022/05/20 01:20:29;;;;;;;;;0.25;0.25;;;;;20.76;41.81;101335.97;5032680;28;46237;-52
2022/05/20 01:23:13;;;;;;;;;1.00;1.00;;;;;20.72;41.71;101325.63;5023516;28;45494;-50
2022/05/20 01:25:47;;;;;;;;;0.25;0.25;;;;;20.72;41.90;101320.28;5031403;28;45647;-50
2022/05/20 01:28:13;;;;;;;;;3.00;0.00;;;;;20.70;41.68;101312.41;5037689;28;45260;-49
2022/05/20 01:30:45;;;;;;;;;5.50;1.00;;;;;20.65;41.41;101304.69;5035194;28;46434;-52
2022/05/20 01:33:11;;;;;;;;;1.00;1.00;;;;;20.66;41.38;101310.84;5040091;28;45738;-51
2022/05/20 01:35:41;;;;;;;;;1.00;1.00;;;;;20.66;41.40;101310.84;5036489;28;60880;-56
2022/05/20 01:38:08;;;;;;;;;1.00;1.00;;;;;20.64;41.80;101305.63;5032746;28;45558;-53
2022/05/20 01:40:48;;;;;;;;;5.00;2.00;;;;;20.65;41.33;101293.19;5034258;28;46209;-50
2022/05/20 01:43:34;;;;;;;;;2.50;1.50;;;;;20.66;41.84;101298.44;5039353;28;45298;-52
2022/05/20 01:46:12;;;;;;;;;1.00;1.00;;;;;20.66;41.55;101295.78;5040281;28;45370;-49
2022/05/20 01:48:42;;;;;;;;;2.00;1.00;;;;;20.64;41.60;101287.00;5030786;28;45712;-52
2022/05/20 01:51:11;;;;;;;;;1.00;1.00;;;;;20.64;41.78;101280.84;5019767;28;45248;-49
2022/05/20 01:53:54;;;;;;;;;2.00;1.00;;;;;20.65;41.63;101279.91;5025702;28;45739;-51
2022/05/20 01:56:23;;;;;;;;;2.75;0.25;;;;;20.63;41.66;101281.81;5032042;28;45445;-52
2022/05/20 01:59:02;;;;;;;;;1.00;1.00;;;;;20.60;41.72;101284.59;5039320;28;45288;-51
2022/05/20 02:01:45;;;;;;;;;4.00;1.00;;;;;20.60;41.72;101288.13;5031721;28;46210;-49
2022/05/20 02:04:17;;;;;;;;;3.75;0.75;;;;;20.58;41.45;101278.53;5026060;28;45666;-52
2022/05/20 02:06:48;;;;;;;;;1.00;1.00;;;;;20.58;41.66;101270.56;5021411;28;45697;-50
2022/05/20 02:09:24;;;;;;;;;0.00;0.00;;;;;20.57;41.74;101268.84;5032108;28;45299;-51
2022/05/20 02:11:53;;;;;;;;;1.00;1.00;;;;;20.56;41.73;101275.97;5030845;28;46131;-51
2022/05/20 02:14:37;;;;;;;;;2.00;2.00;;;;;20.57;41.78;101274.16;5036720;28;45594;-49
2022/05/20 02:17:08;;;;;;;;;0.50;0.50;;;;;20.55;41.48;101260.09;5054873;28;45362;-50
2022/05/20 02:19:38;;;;;;;;;2.25;1.00;;;;;20.51;41.58;101259.44;5039097;28;46335;-51
2022/05/20 02:22:09;;;;;;;;;1.50;1.00;;;;;20.50;41.82;101255.03;5038703;28;45362;-51
2022/05/20 02:24:36;;;;;;;;;1.00;1.00;;;;;20.43;41.74;101259.91;5038535;28;45455;-50
2022/05/20 02:27:05;;;;;;;;;0.00;0.00;;;;;20.39;41.90;101250.38;5031630;28;64786;-50
2022/05/20 02:29:36;;;;;;;;;0.00;0.00;;;;;20.38;42.05;101240.72;5026174;28;45473;-52
2022/05/20 02:32:22;;;;;;;;;1.00;1.00;;;;;20.38;42.10;101253.13;5040917;28;45398;-51
2022/05/20 02:34:49;;;;;;;;;2.00;1.00;;;;;20.37;41.84;101254.09;5032266;28;45403;-51
2022/05/20 02:37:25;;;;;;;;;0.25;0.25;;;;;20.36;41.89;101252.38;5038570;28;45397;-50
2022/05/20 02:39:52;;;;;;;;;0.25;0.25;;;;;20.29;42.21;101246.56;5039452;28;45517;-52
2022/05/20 02:42:17;;;;;;;;;1.00;0.50;;;;;20.27;42.18;101248.47;5029861;28;45317;-52
2022/05/20 02:44:43;;;;;;;;;3.00;1.00;;;;;20.26;42.41;101239.63;5037464;28;45478;-52
2022/05/20 02:47:08;;;;;;;;;2.25;1.00;;;;;20.27;42.65;101249.34;5032965;28;47103;-50
2022/05/20 02:49:35;;;;;;;;;1.25;0.75;;;;;20.27;42.74;101229.84;5034030;28;45420;-52
2022/05/20 02:52:00;;;;;;;;;1.00;1.00;;;;;20.28;42.48;101232.41;5038430;28;47283;-50
2022/05/20 02:54:25;;;;;;;;;2.50;1.00;;;;;20.28;42.63;101242.22;5031906;28;45576;-52
2022/05/20 02:56:51;;;;;;;;;1.00;1.00;;;;;20.26;42.91;101244.09;5034176;28;63654;-52
2022/05/20 03:04:45;;;;;;;;;0.25;0.25;;;;;20.22;43.00;101238.13;5023174;28;45324;-49
2022/05/20 03:07:10;;;;;;;;;3.00;1.00;;;;;20.22;43.21;101237.25;5036630;28;59697;-52
2022/05/20 03:09:36;;;;;;;;;1.00;0.00;;;;;20.17;43.50;101231.34;5038958;28;65970;-51
2022/05/20 03:12:01;;;;;;;;;3.00;1.00;;;;;20.18;43.36;101244.53;5034687;28;66319;-50
2022/05/20 03:14:27;;;;;;;;;3.00;1.00;;;;;20.15;43.71;101236.78;5028770;28;45470;-50
2022/05/20 03:16:52;;;;;;;;;2.00;1.25;;;;;20.14;43.70;101234.19;5025300;28;54638;-52
2022/05/20 03:19:19;;;;;;;;;1.75;1.00;;;;;20.14;43.65;101237.72;5025202;28;45427;-51
2022/05/20 03:21:44;;;;;;;;;2.00;2.00;;;;;20.14;43.70;101235.03;5036242;28;45340;-50
2022/05/20 03:24:11;;;;;;;;;2.00;1.00;;;;;20.13;43.64;101245.75;5036265;28;45303;-50
2022/05/20 03:26:37;;;;;;;;;1.50;1.50;;;;;20.13;44.15;101230.66;5032240;28;45402;-51
2022/05/20 03:29:04;;;;;;;;;3.50;1.75;;;;;20.14;43.96;101236.88;5029616;28;45383;-51
2022/05/20 03:31:31;;;;;;;;;2.00;2.00;;;;;20.13;43.99;101246.59;5035500;28;46940;-52
2022/05/20 03:33:57;;;;;;;;;1.75;1.25;;;;;20.08;44.25;101240.75;5022580;28;45671;-51
2022/05/20 03:36:23;;;;;;;;;3.25;1.75;;;;;20.03;44.26;101227.72;5029663;28;45392;-53
2022/05/20 03:38:48;;;;;;;;;2.75;1.00;;;;;20.00;44.38;101225.22;5037600;28;65455;-51
2022/05/20 03:41:14;;;;;;;;;4.50;1.75;;;;;19.99;44.74;101234.16;5027537;28;55694;-52
2022/05/20 03:43:39;;;;;;;;;1.75;1.00;;;;;19.98;44.45;101223.63;5037240;28;45469;-52
2022/05/20 03:46:05;;;;;;;;;3.00;1.00;;;;;19.97;44.52;101216.59;5026674;28;57675;-51
2022/05/20 03:48:30;;;;;;;;;2.00;1.25;;;;;19.94;44.39;101225.59;5029866;28;60501;-52
2022/05/20 03:50:56;;;;;;;;;2.00;1.00;;;;;19.90;45.21;101218.75;5034879;28;67077;-52
2022/05/20 03:53:21;;;;;;;;;2.75;2.00;;;;;19.88;45.17;101210.00;5030945;28;57328;-50
2022/05/20 03:55:46;;;;;;;;;3.75;2.00;;;;;19.85;45.14;101200.44;5031204;28;60738;-49
2022/05/20 03:58:12;;;;;;;;;3.50;3.25;;;;;19.86;45.66;101198.63;5023297;28;67092;-52
2022/05/20 04:03:23;;;;;;;;;2.75;1.50;;;;;19.86;45.79;101203.94;5026314;28;45458;-51
2022/05/20 04:05:49;;;;;;;;;2.25;2.00;;;;;19.84;45.78;101203.19;5021260;28;45311;-51
2022/05/20 04:08:15;;;;;;;;;2.00;1.00;;;;;19.84;45.51;101201.38;5020095;28;45428;-52
2022/05/20 04:10:41;;;;;;;;;4.00;1.75;;;;;19.83;45.80;101196.13;5031427;28;46237;-52
2022/05/20 04:13:07;;;;;;;;;2.00;2.00;;;;;19.83;45.63;101191.72;5038048;28;45450;-51
2022/05/20 04:15:32;;;;;;;;;4.00;2.50;;;;;19.85;45.92;101200.44;5031291;28;45485;-50
2022/05/20 04:17:57;;;;;;;;;5.00;3.25;;;;;19.85;45.85;101191.63;5020960;28;68959;-52
2022/05/20 04:20:22;;;;;;;;;2.75;2.75;;;;;19.85;45.77;101188.97;5030768;28;52240;-52
2022/05/20 04:22:48;;;;;;;;;2.50;2.00;;;;;19.81;46.02;101188.25;5031741;28;67038;-49
2022/05/20 04:25:13;;;;;;;;;3.50;1.50;;;;;19.79;45.93;101203.44;5036436;28;61874;-51
2022/05/20 04:27:39;;;;;;;;;2.00;2.00;;;;;19.78;46.39;101204.41;5028048;28;66188;-52
2022/05/20 04:30:07;;;;;;;;;3.50;2.00;;;;;19.78;46.39;101209.72;5019460;28;69851;-52
2022/05/20 04:32:32;;;;;;;;;4.00;2.50;;;;;19.80;46.42;101212.28;5031185;28;45512;-49
2022/05/20 04:34:57;;;;;;;;;3.75;3.00;;;;;19.80;46.59;101218.44;5031710;28;64271;-53
2022/05/20 04:37:23;;;;;;;;;3.00;2.00;;;;;19.82;46.77;101215.69;5019542;28;67079;-51
2022/05/20 04:39:49;;;;;;;;;4.75;3.00;;;;;19.82;46.89;101210.38;5025026;28;46217;-52
2022/05/20 04:47:43;;;;;;;;;2.25;2.25;;;;;19.89;46.55;101215.25;5026470;28;45225;-52
2022/05/20 04:50:09;;;;;;;;;5.00;2.50;;;;;19.91;46.86;101223.97;5031716;28;69212;-52
2022/05/20 04:52:35;;;;;;;;;3.25;3.25;;;;;19.96;46.68;101217.56;5035298;28;45933;-52
2022/05/20 04:55:00;;;;;;;;;4.50;3.00;;;;;19.99;47.10;101220.88;5021215;28;62621;-53
2022/05/20 04:57:41;;;;;;;;;3.25;1.50;;;;;20.06;46.86;101230.19;5035723;28;45370;-52
2022/05/20 05:00:20;;;;;;;;;5.50;2.50;;;;;20.13;46.81;101237.78;5025975;28;46341;-51
2022/05/20 05:02:47;;;;;;;;;4.50;3.00;;;;;20.16;46.78;101238.47;5032549;28;45850;-50
2022/05/20 05:05:14;;;;;;;;;3.00;3.00;;;;;20.18;46.65;101231.25;5035389;28;45613;-51
2022/05/20 05:07:42;;;;;;;;;8.00;4.00;;;;;20.19;47.08;101232.97;5028367;28;45463;-53
2022/05/20 05:10:08;;;;;;;;;4.75;4.00;;;;;20.21;46.80;101236.41;5023740;28;46225;-54
2022/05/20 05:12:34;;;;;;;;;5.75;2.50;;;;;20.23;46.88;101238.97;5026803;28;45242;-51
2022/05/20 05:14:59;;;;;;;;;5.00;4.00;;;;;20.24;46.67;101236.22;5026789;28;45983;-50
2022/05/20 05:20:14;;;;;;;;;8.00;4.00;;;;;20.25;46.91;101231.75;5027419;28;45303;-52
2022/05/20 05:22:39;;;;;;;;;5.00;3.25;;;;;20.29;47.13;101239.47;5036403;28;47301;-53
2022/05/20 05:25:05;;;;;;;;;4.75;2.50;;;;;20.33;47.05;101236.59;5026009;28;45159;-53
2022/05/20 05:27:31;;;;;;;;;6.00;3.00;;;;;20.34;46.79;101233.84;5053899;28;45307;-53
2022/05/20 05:29:56;;;;;;;;;4.50;2.25;;;;;20.36;46.93;101234.63;5034004;28;72374;-53
2022/05/20 05:32:21;;;;;;;;;4.00;1.50;;;;;20.36;46.73;101229.31;5027155;28;69080;-54
2022/05/20 05:34:47;;;;;;;;;4.00;2.50;;;;;20.37;47.03;101217.72;5036559;28;63987;-52
2022/05/20 05:37:12;;;;;;;;;6.50;3.75;;;;;20.34;47.07;101209.94;5035446;28;45475;-54
2022/05/20 05:39:38;;;;;;;;;7.50;4.75;;;;;20.36;47.25;101212.50;5029250;28;46291;-52
2022/05/20 05:42:03;;;;;;;;;3.25;3.00;;;;;20.35;46.89;101209.00;5024460;28;45230;-53
2022/05/20 05:44:29;;;;;;;;;7.00;4.00;;;;;20.35;47.37;101213.47;5034909;28;45280;-54
2022/05/20 05:46:55;;;;;;;;;3.25;2.75;;;;;20.36;47.54;101207.19;5036830;28;45327;-51
2022/05/20 05:49:21;;;;;;;;;6.25;4.00;;;;;20.36;47.05;101207.19;5026582;28;46089;-51
2022/05/20 05:51:46;;;;;;;;;6.00;4.00;;;;;20.35;47.56;101206.34;5034804;28;45500;-53
2022/05/20 05:54:11;;;;;;;;;5.75;3.00;;;;;20.36;47.96;101200.09;5021814;28;60689;-53
2022/05/20 05:56:38;;;;;;;;;4.75;3.25;;;;;20.39;47.92;101172.44;5031031;28;45465;-55
2022/05/20 05:59:04;;;;;;;;;3.50;2.50;;;;;20.38;47.94;101166.28;5035992;28;46918;-52
2022/05/20 06:01:29;;;;;;;;;4.50;3.00;;;;;20.40;48.11;101158.22;5034591;28;45300;-51
2022/05/20 06:03:55;;;;;;;;;6.00;4.00;;;;;20.41;47.89;101166.06;5032434;28;61656;-54
2022/05/20 06:06:20;;;;;;;;;4.00;3.00;;;;;20.41;48.56;101191.81;5027799;28;46397;-52
2022/05/20 06:08:45;;;;;;;;;7.25;4.00;;;;;20.43;48.55;101208.50;5035129;28;48124;-54
2022/05/20 06:11:12;;;;;;;;;5.25;3.50;;;;;20.42;49.20;101210.31;5030005;28;45257;-52
2022/05/20 06:13:37;;;;;;;;;5.50;5.00;;;;;20.43;49.88;101216.50;5026449;28;45428;-53
2022/05/20 06:16:03;;;;;;;;;5.75;4.25;;;;;20.35;49.79;101214.31;5026063;28;45281;-53
2022/05/20 06:18:29;;;;;;;;;4.75;3.50;;;;;20.30;50.65;101217.22;5034742;28;45860;-53
2022/05/20 06:20:54;;;;;;;;;3.50;3.50;;;;;20.19;51.38;101203.75;5028781;28;65837;-54
2022/05/20 06:23:19;;;;;;;;;8.00;5.75;;;;;20.06;51.03;101194.78;5024029;28;61738;-54
2022/05/20 06:25:45;;;;;;;;;10.25;6.00;;;;;20.17;52.03;101194.13;5037698;28;67786;-54
2022/05/20 06:28:13;;;;;;;;;5.50;4.50;;;;;20.18;52.46;101187.88;5031140;28;46241;-54
2022/05/20 06:30:40;;;;;;;;;7.00;5.00;;;;;20.21;52.69;101169.09;5037066;28;45498;-55
2022/05/20 06:33:06;;;;;;;;;6.50;5.75;;;;;20.23;51.88;101120.22;5028516;28;45412;-52
2022/05/20 06:41:00;;;;;;;;;12.25;6.75;;;;;20.26;52.88;101101.44;5021101;28;45782;-51
2022/05/20 06:43:26;;;;;;;;;5.00;5.00;;;;;20.25;52.97;101125.44;5032180;28;45363;-54
2022/05/20 06:45:56;;;;;;;;;7.25;6.50;;;;;20.24;53.04;101143.19;5033095;28;45252;-54
2022/05/20 06:48:21;;;;;;;;;7.00;6.00;;;;;20.25;53.45;101158.19;5029431;28;46990;-53
2022/05/20 06:50:47;;;;;;;;;6.75;5.00;;;;;20.26;53.09;101159.06;5021231;28;45309;-53
2022/05/20 06:53:13;;;;;;;;;8.75;4.25;;;;;20.23;53.23;101136.16;5027965;28;63066;-53
2022/05/20 06:55:38;;;;;;;;;10.75;7.00;;;;;20.25;53.94;101102.38;5032924;28;45467;-53
2022/05/20 06:58:04;;;;;;;;;8.25;6.00;;;;;20.23;53.87;101050.28;5036079;28;46155;-53
2022/05/20 07:00:29;;;;;;;;;7.00;6.00;;;;;20.24;53.67;101015.63;5027199;28;46115;-53
2022/05/20 07:02:55;;;;;;;;;8.75;5.75;;;;;20.24;52.31;100957.16;5030623;28;66223;-53
2022/05/20 07:05:20;;;;;;;;;6.50;6.00;;;;;20.22;53.34;100953.75;5026652;28;45547;-54
2022/05/20 07:07:46;;;;;;;;;7.00;6.00;;;;;20.27;53.37;100951.66;5031974;28;46356;-54
2022/05/20 07:10:13;;;;;;;;;7.00;6.00;;;;;20.25;52.41;100956.19;5026752;28;45454;-53
2022/05/20 07:12:38;;;;;;;;;7.75;7.00;;;;;20.29;52.89;100952.41;5029372;28;45564;-55
2022/05/20 07:15:05;;;;;;;;;6.25;5.25;;;;;20.29;53.70;100944.44;5028876;28;46952;-53
2022/05/20 07:17:31;;;;;;;;;8.50;6.25;;;;;20.30;53.62;100938.16;5019763;28;46599;-55
2022/05/20 07:19:57;;;;;;;;;10.00;7.00;;;;;20.35;53.20;100955.63;5029029;28;45335;-55
2022/05/20 07:22:22;;;;;;;;;7.75;6.25;;;;;20.39;53.34;100949.16;5035376;28;45436;-56
2022/05/20 07:24:47;;;;;;;;;8.00;7.00;;;;;20.45;53.21;100959.38;5027232;28;45524;-55
2022/05/20 07:27:13;;;;;;;;;8.00;7.25;;;;;20.49;53.42;100972.38;5023720;28;50036;-56
2022/05/20 07:29:39;;;;;;;;;9.50;7.00;;;;;20.54;53.83;100987.16;5029159;28;45387;-55
2022/05/20 07:32:05;;;;;;;;;7.00;7.00;;;;;20.57;53.68;101000.28;5028436;28;45344;-55
2022/05/20 07:34:31;;;;;;;;;9.25;7.50;;;;;20.57;54.07;100977.19;5031752;28;45488;-55
2022/05/20 07:36:56;;;;;;;;;7.50;7.25;;;;;20.59;53.97;100970.00;5024742;28;45888;-56
2022/05/20 07:39:21;;;;;;;;;12.00;9.00;;;;;20.64;54.12;100996.28;5029946;28;65548;-53
2022/05/20 07:41:47;;;;;;;;;16.00;11.00;;;;;20.67;55.00;101014.72;5027126;28;45879;-55
2022/05/20 07:44:12;;;;;;;;;11.75;7.00;;;;;20.71;54.44;101002.91;5022929;28;45222;-56
2022/05/20 07:46:38;;;;;;;;;13.75;9.50;;;;;20.75;54.90;101031.03;5021799;28;45332;-56
2022/05/20 07:49:03;;;;;;;;;15.50;10.00;;;;;20.78;54.62;101057.41;5019723;28;66595;-56
2022/05/20 07:51:29;;;;;;;;;12.25;9.00;;;;;20.77;54.73;101082.31;5029267;28;45249;-56
2022/05/20 07:54:05;;;;;;;;;29.00;14.25;;;;;20.75;55.37;101096.66;5023090;28;45207;-56
2022/05/20 07:56:40;;;;;;;;;19.25;10.50;;;;;20.77;55.81;101118.69;5030252;28;46276;-55
2022/05/20 07:59:09;;;;;;;;;10.75;9.75;;;;;20.77;56.40;101163.91;5022158;28;45861;-56
2022/05/20 08:01:36;;;;;;;;;8.25;8.25;;;;;20.69;56.28;101097.91;5022295;28;45371;-56
2022/05/20 08:06:55;;;;;;;;;16.00;11.25;;;;;20.69;56.26;101076.63;5021881;28;45890;-56
2022/05/20 08:09:20;;;;;;;;;13.00;11.00;;;;;20.69;56.71;101066.00;5030169;28;67853;-56
2022/05/20 08:11:45;;;;;;;;;18.25;12.50;;;;;20.71;57.19;101065.91;5026841;28;45426;-54
2022/05/20 08:14:11;;;;;;;;;17.25;16.00;;;;;20.70;57.31;101064.19;5033294;28;45662;-55
2022/05/20 08:16:36;;;;;;;;;13.50;12.25;;;;;20.69;57.31;101036.75;5027978;28;45220;-54
2022/05/20 08:19:01;;;;;;;;;13.50;12.00;;;;;20.72;57.56;101044.53;5018960;28;68847;-55
2022/05/20 08:21:27;;;;;;;;;10.50;8.25;;;;;20.72;57.56;101030.38;5032559;28;47373;-54
2022/05/20 08:23:52;;;;;;;;;16.25;12.75;;;;;20.69;57.29;101047.38;5026140;28;54215;-54
2022/05/20 08:26:18;;;;;;;;;15.75;13.75;;;;;20.65;57.95;101064.50;5031254;28;69951;-54
2022/05/20 08:28:47;;;;;;;;;12.25;12.25;;;;;20.61;58.15;101018.63;5027371;28;45746;-57
2022/05/20 08:31:13;;;;;;;;;11.75;10.75;;;;;20.66;58.06;101018.31;5028658;28;54030;-55
2022/05/20 08:33:38;;;;;;;;;19.50;12.75;;;;;20.67;58.41;101055.44;5037876;28;45513;-56
2022/05/20 08:36:04;;;;;;;;;16.50;11.00;;;;;20.64;57.40;101062.78;5038930;28;71470;-55
2022/05/20 08:38:30;;;;;;;;;14.00;10.75;;;;;20.65;57.89;101040.56;5034406;28;45313;-54
2022/05/20 08:40:57;;;;;;;;;15.25;11.00;;;;;20.66;57.67;101042.25;5024501;28;45285;-55
2022/05/20 08:43:26;;;;;;;;;12.75;12.00;;;;;20.66;58.30;101122.03;5026748;28;45517;-54
2022/05/20 08:45:51;;;;;;;;;15.75;12.75;;;;;20.61;58.57;101148.94;5024591;28;45356;-54
2022/05/20 08:48:18;;;;;;;;;17.00;11.75;;;;;20.61;58.93;101209.19;5033522;28;45431;-54
2022/05/20 08:51:03;;;;;;;;;29.75;21.75;;;;;20.59;57.15;101233.25;5035945;28;45582;-55
2022/05/20 08:53:41;;;;;;;;;17.75;14.75;;;;;20.55;59.09;101183.00;5034913;28;45518;-54
2022/05/20 08:56:10;;;;;;;;;23.25;14.50;;;;;20.53;58.47;101129.91;5036533;28;46391;-54
2022/05/20 08:58:37;;;;;;;;;16.00;14.00;;;;;20.52;59.47;101141.47;5023340;28;45809;-55
2022/05/20 09:01:03;;;;;;;;;15.00;12.25;;;;;20.52;58.24;101066.19;5029393;28;45456;-54
2022/05/20 09:03:29;;;;;;;;;19.25;14.50;;;;;20.55;59.81;101061.53;5031227;28;45245;-56
2022/05/20 09:06:09;;;;;;;;;26.00;16.50;;;;;20.59;59.02;101081.66;5032929;28;45454;-55
2022/05/20 09:08:34;;;;;;;;;15.50;14.25;;;;;20.64;58.69;101084.03;5030494;28;45399;-55
2022/05/20 09:11:03;;;;;;;;;24.50;17.00;;;;;20.63;58.62;101085.88;5040486;28;45301;-55
2022/05/20 09:16:28;;;;;;;;;18.75;16.75;;;;;20.60;59.03;101056.75;5028933;28;45757;-55
2022/05/20 09:19:07;;;;;;;;;18.75;15.25;;;;;20.61;59.37;101069.16;5036045;28;45246;-55
2022/05/20 09:21:38;;;;;;;;;30.50;26.25;;;;;20.63;59.13;101082.34;5041707;28;45410;-55
2022/05/20 09:24:06;;;;;;;;;27.25;22.50;;;;;20.68;58.53;101072.25;5031367;28;45488;-55
2022/05/20 09:26:47;;;;;;;;;19.50;17.00;;;;;20.76;59.08;101061.13;5038060;28;46020;-55
2022/05/20 09:29:18;;;;;;;;;20.25;19.00;;;;;20.83;59.59;101041.16;5028211;28;45896;-56
2022/05/20 09:31:51;;;;;;;;;20.75;16.00;;;;;20.98;59.03;101026.00;5027173;28;45380;-56
2022/05/20 09:34:26;;;;;;;;;18.00;15.75;;;;;21.03;58.54;101032.75;5025243;28;45525;-56
2022/05/20 09:37:00;;;;;;;;;15.25;14.75;;;;;21.00;58.63;101069.31;5028363;28;46155;-56
2022/05/20 09:39:32;;;;;;;;;15.00;13.75;;;;;20.92;59.52;101146.13;5024962;28;45797;-56
2022/05/20 09:42:04;;;;;;;;;18.75;16.50;;;;;20.78;59.17;101237.44;5024731;28;45374;-56
2022/05/20 09:44:37;;;;;;;;;22.00;18.00;;;;;20.64;59.18;101232.97;5030677;28;45546;-56
2022/05/20 09:47:23;;;;;;;;;19.00;16.25;;;;;20.61;59.68;101025.69;5023545;28;46409;-56
2022/05/20 09:50:07;;;;;;;;;24.75;17.50;;;;;20.58;60.31;100951.47;5021872;28;46019;-56
2022/05/20 09:52:32;;;;;;;;;20.50;18.50;;;;;20.71;59.75;101002.91;5026092;28;45411;-56
2022/05/20 09:55:16;;;;;;;;;26.00;18.00;;;;;20.92;60.96;101024.59;5026927;28;45329;-56
2022/05/20 09:57:46;;;;;;;;;21.50;17.25;;;;;21.20;60.42;101001.47;5021851;28;46159;-56
2022/05/20 10:00:27;;;;;;;;;22.75;17.50;;;;;21.85;60.12;100970.41;5022990;28;45226;-56
2022/05/20 10:03:10;;;;;;;;;52.50;39.75;;;;;23.10;58.07;100949.69;5030729;28;45413;-56
2022/05/20 10:05:53;;;;;;;;;21.00;19.25;;;;;23.61;56.63;100945.78;5051475;28;47033;-55
2022/05/20 10:08:29;;;;;;;;;24.75;21.50;;;;;23.65;56.27;100949.88;5028538;28;46297;-56
2022/05/20 10:11:18;;;;;;;;;26.25;20.25;;;;;23.58;56.37;100956.69;5041451;28;45333;-56
2022/05/20 10:14:00;;;;;;;;;21.00;17.00;;;;;23.37;55.87;100951.19;5024988;28;45471;-54
2022/05/20 10:16:36;;;;;;;;;21.75;21.75;;;;;23.23;56.14;100962.09;5035386;28;45404;-55
2022/05/20 10:19:14;;;;;;;;;20.25;18.00;;;;;22.97;56.99;100975.59;5046795;28;45411;-55
2022/05/20 10:21:48;;;;;;;;;23.50;20.75;;;;;22.63;56.99;100974.59;5033221;28;45770;-54
2022/05/20 10:24:32;;;;;;;;;28.00;24.00;;;;;22.46;57.99;101008.69;5027975;28;45440;-53
2022/05/20 10:27:03;;;;;;;;;25.25;21.00;;;;;22.39;58.70;101025.25;5038178;28;45918;-56
2022/05/20 10:32:40;;;;;;;;;27.00;23.00;;;;;22.25;58.84;101020.88;5034797;28;45768;-54
2022/05/20 10:35:09;;;;;;;;;24.25;21.50;;;;;22.21;58.77;101009.59;5025645;28;45459;-54
2022/05/20 10:37:53;;;;;;;;;25.25;22.25;;;;;22.24;59.10;100984.50;5026002;28;45494;-54
2022/05/20 10:40:53;;;;;;;;;27.75;24.75;;;;;22.26;59.01;100980.78;5028265;28;45289;-54
2022/05/20 10:43:24;;;;;;;;;26.00;20.00;;;;;22.29;59.33;100983.28;5035699;28;45360;-54
2022/05/20 10:49:12;;;;;;;;;34.50;27.50;;;;;22.56;59.89;100963.53;5028402;28;45437;-54
2022/05/20 10:51:43;;;;;;;;;34.50;26.00;;;;;22.86;59.80;100964.88;5031993;28;46178;-56
2022/05/20 10:54:21;;;;;;;;;32.75;28.50;;;;;23.66;58.58;100945.41;5038449;28;45482;-54
2022/05/20 10:57:04;;;;;;;;;48.50;31.75;;;;;25.15;56.73;100948.47;5038796;28;45358;-55
2022/05/20 10:59:32;;;;;;;;;50.50;31.25;;;;;26.70;54.06;100967.00;5028982;28;45342;-55
2022/05/20 11:02:22;;;;;;;;;62.00;39.00;;;;;27.81;51.50;100974.59;5021439;28;45454;-56
2022/05/20 11:05:32;;;;;;;;;35.50;29.50;;;;;28.84;48.62;100969.88;5029668;28;45887;-55
2022/05/20 11:08:09;;;;;;;;;45.00;32.00;;;;;29.22;47.60;100983.19;5019930;28;45293;-55
2022/05/20 11:10:35;;;;;;;;;41.50;31.75;;;;;28.97;47.34;100977.59;5028631;28;45471;-55
2022/05/20 11:13:06;;;;;;;;;35.00;27.50;;;;;28.55;46.75;101005.13;5033250;28;46879;-55
2022/05/20 11:15:55;;;;;;;;;28.75;27.50;;;;;27.99;47.45;101012.34;5027404;28;45395;-56
2022/05/20 11:18:34;;;;;;;;;33.50;29.00;;;;;27.34;48.48;101028.34;5033062;28;45506;-55
2022/05/20 11:21:24;;;;;;;;;28.50;25.50;;;;;26.85;49.65;101033.72;5039451;28;45324;-55
2022/05/20 11:23:55;;;;;;;;;30.50;26.25;;;;;26.47;50.15;101056.78;5030611;28;46161;-55
2022/05/20 11:26:24;;;;;;;;;29.75;23.00;;;;;26.13;50.73;101052.59;5034293;28;45717;-55
2022/05/20 11:29:18;;;;;;;;;32.50;25.00;;;;;25.87;51.40;101056.66;5039004;28;45392;-54
2022/05/20 11:32:32;;;;;;;;;25.50;22.50;;;;;25.50;51.86;101046.44;5031143;28;45344;-55
2022/05/20 11:35:04;;;;;;;;;25.50;20.50;;;;;25.47;52.63;101049.38;5021166;28;45384;-55
2022/05/20 11:37:42;;;;;;;;;22.50;20.00;;;;;25.49;52.77;101045.56;5048348;28;45682;-54
2022/05/20 11:40:44;;;;;;;;;26.25;21.50;;;;;25.70;53.10;101042.03;5023067;28;45451;-55
2022/05/20 11:43:26;;;;;;;;;21.75;19.75;;;;;26.08;52.81;101043.22;5032013;28;45327;-55
2022/05/20 11:46:03;;;;;;;;;26.25;22.00;;;;;26.30;52.03;101037.66;5011819;28;48227;-54
2022/05/20 11:49:01;;;;;;;;;22.25;19.50;;;;;26.75;52.21;101022.97;5018915;28;45479;-54
2022/05/20 11:51:59;;;;;;;;;22.75;19.00;;;;;27.57;50.76;101020.81;5006821;28;45283;-54
2022/05/20 11:54:44;;;;;;;;;16.25;16.25;;;;;28.26;48.15;101013.34;5029231;28;45401;-55
2022/05/20 11:57:22;;;;;;;;;19.00;17.75;;;;;28.59;47.92;101015.44;5029804;28;47312;-56
2022/05/20 12:00:05;;;;;;;;;20.50;18.00;;;;;28.54;47.15;101006.13;5035689;28;45536;-56
2022/05/20 12:02:40;;;;;;;;;22.00;18.50;;;;;28.33;47.73;100983.00;5029421;28;45407;-56
2022/05/20 12:05:06;;;;;;;;;18.50;16.25;;;;;28.06;48.08;100978.47;5030608;28;45436;-56
2022/05/20 12:07:37;;;;;;;;;22.50;19.25;;;;;27.75;48.71;100994.03;5015753;28;47331;-56